createdAt,value
2023-04-28T00:03:11.519Z,100.00
2023-04-28T00:07:09.255Z,100.00
2023-04-28T00:11:09.317Z,100.00
2023-04-28T00:15:07.151Z,100.00
2023-04-28T00:19:05.131Z,100.00
2023-04-28T00:23:03.122Z,100.00
2023-04-28T00:27:01.090Z,100.00
2023-04-28T00:30:59.178Z,100.00
2023-04-28T00:34:57.105Z,100.00
2023-04-28T00:38:55.142Z,100.00
2023-04-28T00:42:53.080Z,100.00
2023-04-28T00:46:51.232Z,100.00
2023-04-28T00:50:49.082Z,100.00
2023-04-28T00:54:50.158Z,100.00
2023-04-28T00:58:49.105Z,100.00
2023-04-28T01:02:47.205Z,100.00
2023-04-28T01:06:46.103Z,100.00
2023-04-28T01:10:44.212Z,100.00
2023-04-28T01:14:57.063Z,100.00
2023-04-28T01:19:01.077Z,100.00
2023-04-28T01:23:00.044Z,100.00
2023-04-28T01:27:00.384Z,100.00
2023-04-28T01:30:58.096Z,100.00
2023-04-28T01:34:56.155Z,100.00
2023-04-28T01:38:54.108Z,100.00
2023-04-28T01:42:52.015Z,100.00
2023-04-28T01:46:49.993Z,100.00
2023-04-28T01:50:48.150Z,100.00
2023-04-28T01:54:46.026Z,100.00
2023-04-28T01:58:44.251Z,100.00
2023-04-28T02:02:42.039Z,100.00
2023-04-28T02:06:39.980Z,100.00
2023-04-28T02:10:38.000Z,100.00
2023-04-28T02:14:36.013Z,100.00
2023-04-28T02:18:34.002Z,100.00
2023-04-28T02:22:32.048Z,100.00
2023-04-28T02:26:30.976Z,100.00
2023-04-28T02:30:28.997Z,100.00
2023-04-28T02:34:26.987Z,100.00
2023-04-28T02:38:25.931Z,100.00
2023-04-28T02:42:24.027Z,100.00
2023-04-28T02:46:22.013Z,100.00
2023-04-28T02:50:20.169Z,100.00
2023-04-28T02:54:18.184Z,100.00
2023-04-28T02:58:15.916Z,100.00
2023-04-28T03:02:13.967Z,100.00
2023-04-28T03:06:11.913Z,100.00
2023-04-28T03:10:09.913Z,100.00
2023-04-28T03:14:07.866Z,100.00
2023-04-28T03:18:05.937Z,100.00
2023-04-28T03:22:04.008Z,100.00
2023-04-28T03:26:02.903Z,100.00
2023-04-28T03:30:00.852Z,100.00
2023-04-28T03:33:58.866Z,100.00
2023-04-28T03:37:56.949Z,100.00
2023-04-28T03:41:54.874Z,100.00
2023-04-28T03:45:58.996Z,100.00
2023-04-28T03:49:56.917Z,100.00
2023-04-28T03:53:54.845Z,100.00
2023-04-28T03:57:52.826Z,100.00
2023-04-28T04:01:50.875Z,100.00
2023-04-28T04:05:49.033Z,100.00
2023-04-28T04:09:46.879Z,100.00
2023-04-28T04:13:44.840Z,100.00
2023-04-28T04:17:42.814Z,97.57
2023-04-28T04:21:40.826Z,92.64
2023-04-28T04:25:38.815Z,87.58
2023-04-28T04:29:36.819Z,82.64
2023-04-28T04:33:38.801Z,77.73
2023-04-28T04:37:37.770Z,73.64
2023-04-28T04:41:35.788Z,69.25
2023-04-28T04:45:49.816Z,67.79
2023-04-28T04:49:47.808Z,66.31
2023-04-28T04:53:45.785Z,63.00
2023-04-28T04:57:43.802Z,61.53
2023-04-28T05:01:53.866Z,60.01
2023-04-28T05:05:52.824Z,56.59
2023-04-28T05:09:56.864Z,58.68
2023-04-28T05:13:55.790Z,59.45
2023-04-28T05:17:54.372Z,57.96
2023-04-28T05:21:53.780Z,56.66
2023-04-28T05:25:51.787Z,59.87
2023-04-28T05:29:49.743Z,60.60
2023-04-28T05:33:47.751Z,60.30
2023-04-28T05:37:45.803Z,61.10
2023-04-28T05:41:43.753Z,61.20
2023-04-28T05:45:43.913Z,61.90
2023-04-28T05:49:41.691Z,63.60
2023-04-28T05:53:39.762Z,64.47
2023-04-28T05:57:49.265Z,65.28
2023-04-28T06:01:32.851Z,63.81
2023-04-28T06:04:57.212Z,63.64
2023-04-28T06:08:21.819Z,61.66
2023-04-28T06:11:46.824Z,60.94
2023-04-28T06:15:11.590Z,60.85
2023-04-28T06:18:36.401Z,61.39
2023-04-28T06:22:01.082Z,60.11
2023-04-28T06:25:25.408Z,59.27
2023-04-28T06:28:49.206Z,56.43
2023-04-28T06:32:13.109Z,57.51
2023-04-28T06:35:39.195Z,58.21
2023-04-28T06:39:03.074Z,52.36
2023-04-28T06:42:27.677Z,55.36
2023-04-28T06:46:02.848Z,54.55
2023-04-28T06:49:26.798Z,49.65
2023-04-28T06:52:57.405Z,49.40
2023-04-28T06:56:21.833Z,51.10
2023-04-28T06:59:47.296Z,52.52
2023-04-28T07:03:11.608Z,54.63
2023-04-28T07:06:36.088Z,54.66
2023-04-28T07:10:01.165Z,52.40
2023-04-28T07:13:25.320Z,47.92
2023-04-28T07:16:49.201Z,45.73
2023-04-28T07:20:14.076Z,47.53
2023-04-28T07:23:40.444Z,48.61
2023-04-28T07:27:04.687Z,48.11
2023-04-28T07:30:28.550Z,47.91
2023-04-28T07:33:52.645Z,44.44
2023-04-28T07:37:18.256Z,40.10
2023-04-28T07:40:44.457Z,38.65
2023-04-28T07:44:08.806Z,40.11
2023-04-28T07:47:32.786Z,39.73
2023-04-28T07:50:56.757Z,39.72
2023-04-28T07:54:20.893Z,40.03
2023-04-28T07:57:44.719Z,40.55
2023-04-28T08:01:08.749Z,40.83
2023-04-28T08:04:35.019Z,38.86
2023-04-28T08:08:00.598Z,38.02
2023-04-28T08:11:24.578Z,37.81
2023-04-28T08:14:48.690Z,38.42
2023-04-28T08:18:13.893Z,37.71
2023-04-28T08:21:37.861Z,38.40
2023-04-28T08:25:01.766Z,36.55
2023-04-28T08:28:25.622Z,38.96
2023-04-28T08:31:49.756Z,40.16
2023-04-28T08:35:15.518Z,37.71
2023-04-28T08:38:39.917Z,37.20
2023-04-28T08:42:06.973Z,36.54
2023-04-28T08:45:31.974Z,36.78
2023-04-28T08:49:02.231Z,36.65
2023-04-28T08:52:27.796Z,37.13
2023-04-28T08:55:58.705Z,36.23
2023-04-28T08:59:22.849Z,34.55
2023-04-28T09:02:46.871Z,36.28
2023-04-28T09:06:10.864Z,37.22
2023-04-28T09:09:37.135Z,35.99
2023-04-28T09:13:02.976Z,36.39
2023-04-28T09:16:41.576Z,35.83
2023-04-28T09:20:27.832Z,34.75
2023-04-28T09:23:52.209Z,32.78
2023-04-28T09:27:16.149Z,34.80
2023-04-28T09:30:41.390Z,34.78
2023-04-28T09:34:05.813Z,34.75
2023-04-28T09:37:31.308Z,35.69
2023-04-28T09:41:00.749Z,35.87
2023-04-28T09:44:24.824Z,36.09
2023-04-28T09:47:48.997Z,35.62
2023-04-28T09:51:13.293Z,36.00
2023-04-28T09:54:37.365Z,33.22
2023-04-28T09:58:08.067Z,34.69
2023-04-28T10:01:38.126Z,33.14
2023-04-28T10:05:02.455Z,34.55
2023-04-28T10:08:28.404Z,36.14
2023-04-28T10:11:52.691Z,36.46
2023-04-28T10:15:16.701Z,37.05
2023-04-28T10:18:41.204Z,37.72
2023-04-28T10:22:26.504Z,37.30
2023-04-28T10:26:08.884Z,36.51
2023-04-28T10:29:36.704Z,37.93
2023-04-28T10:33:16.320Z,37.49
2023-04-28T10:36:55.569Z,37.24
2023-04-28T10:40:41.281Z,36.93
2023-04-28T10:44:30.192Z,38.13
2023-04-28T10:48:06.576Z,38.87
2023-04-28T10:51:32.080Z,38.85
2023-04-28T10:55:22.047Z,38.93
2023-04-28T10:58:47.813Z,38.99
2023-04-28T11:02:42.627Z,38.69
2023-04-28T11:06:40.269Z,37.90
2023-04-28T11:10:04.278Z,38.01
2023-04-28T11:13:31.926Z,37.91
2023-04-28T11:17:00.719Z,38.36
2023-04-28T11:20:26.466Z,37.58
2023-04-28T11:23:50.655Z,37.72
2023-04-28T11:27:25.014Z,37.93
2023-04-28T11:30:49.008Z,39.48
2023-04-28T11:34:14.556Z,38.76
2023-04-28T11:37:39.190Z,38.41
2023-04-28T11:41:04.297Z,38.32
2023-04-28T11:44:30.920Z,38.45
2023-04-28T11:47:55.045Z,36.87
2023-04-28T11:51:41.708Z,35.74
2023-04-28T11:55:05.745Z,36.55
2023-04-28T11:58:29.679Z,36.65
2023-04-28T12:01:57.276Z,37.37
2023-04-28T12:05:22.690Z,36.71
2023-04-28T12:08:46.664Z,37.43
2023-04-28T12:12:17.239Z,37.27
2023-04-28T12:15:42.110Z,36.49
2023-04-28T12:19:10.099Z,34.58
2023-04-28T12:22:46.000Z,32.89
2023-04-28T12:26:10.223Z,33.00
2023-04-28T12:29:39.534Z,31.65
2023-04-28T12:33:04.503Z,32.82
2023-04-28T12:36:28.452Z,33.46
2023-04-28T12:39:52.207Z,32.87
2023-04-28T12:43:16.333Z,33.15
2023-04-28T12:46:41.265Z,34.97
2023-04-28T12:50:08.424Z,34.97
2023-04-28T12:53:32.348Z,34.05
2023-04-28T12:56:56.409Z,35.12
2023-04-28T13:00:23.365Z,35.28
2023-04-28T13:03:48.505Z,35.81
2023-04-28T13:07:13.261Z,35.26
2023-04-28T13:10:37.119Z,34.85
2023-04-28T13:14:01.065Z,33.80
2023-04-28T13:17:25.138Z,33.57
2023-04-28T13:20:48.984Z,33.68
2023-04-28T13:24:13.961Z,33.63
2023-04-28T13:27:38.868Z,34.30
2023-04-28T13:31:24.333Z,33.35
2023-04-28T13:35:22.266Z,34.07
2023-04-28T13:39:21.262Z,33.54
2023-04-28T13:43:19.196Z,33.88
2023-04-28T13:47:17.223Z,33.78
2023-04-28T13:51:15.311Z,33.04
2023-04-28T13:55:13.166Z,33.74
2023-04-28T13:59:12.287Z,34.02
2023-04-28T14:03:10.292Z,33.03
2023-04-28T14:07:09.157Z,33.33
2023-04-28T14:11:08.296Z,33.63
2023-04-28T14:15:07.204Z,33.77
2023-04-28T14:19:05.202Z,34.78
2023-04-28T14:23:03.134Z,34.39
2023-04-28T14:27:02.215Z,35.15
2023-04-28T14:31:00.165Z,35.17
2023-04-28T14:34:58.104Z,33.04
2023-04-28T14:38:58.186Z,33.62
2023-04-28T14:42:56.110Z,32.72
2023-04-28T14:46:54.132Z,32.72
2023-04-28T14:50:53.087Z,32.67
2023-04-28T14:54:51.149Z,31.54
2023-04-28T14:58:50.150Z,31.35
2023-04-28T15:02:48.255Z,31.62
2023-04-28T15:06:47.299Z,30.79
2023-04-28T15:10:52.105Z,29.82
2023-04-28T15:14:51.283Z,30.29
2023-04-28T15:18:49.132Z,30.23
2023-04-28T15:22:47.140Z,30.01
2023-04-28T15:26:45.135Z,29.56
2023-04-28T15:30:43.095Z,30.66
2023-04-28T15:34:41.081Z,31.21
2023-04-28T15:38:39.042Z,30.36
2023-04-28T15:42:37.247Z,30.64
2023-04-28T15:46:36.134Z,30.10
2023-04-28T15:50:41.146Z,29.94
2023-04-28T15:54:39.161Z,30.66
2023-04-28T15:58:37.341Z,31.11
2023-04-28T16:02:36.199Z,31.42
2023-04-28T16:06:34.056Z,31.48
2023-04-28T16:10:32.092Z,31.80
2023-04-28T16:14:30.064Z,32.65
2023-04-28T16:18:28.018Z,33.53
2023-04-28T16:22:26.081Z,34.16
2023-04-28T16:26:23.995Z,34.88
2023-04-28T16:30:23.069Z,35.50
2023-04-28T16:34:20.998Z,36.27
2023-04-28T16:38:20.041Z,36.72
2023-04-28T16:42:18.131Z,37.26
2023-04-28T16:46:16.156Z,37.77
2023-04-28T16:50:16.263Z,38.09
2023-04-28T16:54:14.066Z,38.73
2023-04-28T16:58:11.976Z,39.23
2023-04-28T17:02:14.043Z,39.77
2023-04-28T17:06:11.945Z,40.66
2023-04-28T17:10:11.097Z,41.54
2023-04-28T17:14:09.082Z,41.74
2023-04-28T17:18:07.158Z,42.81
2023-04-28T17:22:04.999Z,43.89
2023-04-28T17:26:03.952Z,44.95
2023-04-28T17:30:01.962Z,45.91
2023-04-28T17:34:00.014Z,46.91
2023-04-28T17:37:57.978Z,47.59
2023-04-28T17:41:56.060Z,48.11
2023-04-28T17:45:53.961Z,48.89
2023-04-28T17:49:52.987Z,50.06
2023-04-28T17:53:51.944Z,50.56
2023-04-28T17:57:50.052Z,51.23
2023-04-28T18:01:47.941Z,51.57
2023-04-28T18:05:45.957Z,51.86
2023-04-28T18:09:43.961Z,52.70
2023-04-28T18:13:41.916Z,53.64
2023-04-28T18:17:40.079Z,53.94
2023-04-28T18:21:38.898Z,54.33
2023-04-28T18:25:38.945Z,55.12
2023-04-28T18:29:36.871Z,55.95
2023-04-28T18:33:34.906Z,57.08
2023-04-28T18:37:32.932Z,57.48
2023-04-28T18:41:32.830Z,58.06
2023-04-28T18:45:30.952Z,58.20
2023-04-28T18:49:28.875Z,59.32
2023-04-28T18:53:27.974Z,60.52
2023-04-28T18:57:25.888Z,62.09
2023-04-28T19:01:31.000Z,61.93
2023-04-28T19:05:28.873Z,61.91
2023-04-28T19:09:29.820Z,61.58
2023-04-28T19:13:27.900Z,62.62
2023-04-28T19:49:25.100Z,62.67
2023-04-28T19:53:23.099Z,62.92
2023-04-28T19:57:21.134Z,62.91
2023-04-28T20:01:21.083Z,62.55
2023-04-28T20:05:19.099Z,62.98
2023-04-28T20:09:17.035Z,62.92
2023-04-28T20:13:15.114Z,63.05
2023-04-28T20:17:14.112Z,63.17
2023-04-28T20:21:12.033Z,63.87
2023-04-28T20:25:13.093Z,64.21
2023-04-28T20:29:12.169Z,64.59
2023-04-28T20:33:10.020Z,64.48
2023-04-28T20:37:11.033Z,64.91
2023-04-28T20:41:09.171Z,65.24
2023-04-28T20:45:06.988Z,65.21
2023-04-28T20:49:04.954Z,65.41
2023-04-28T20:53:03.102Z,65.69
2023-04-28T20:57:00.967Z,65.95
2023-04-28T21:00:58.992Z,65.99
2023-04-28T21:04:58.010Z,66.33
2023-04-28T21:08:56.020Z,66.59
2023-04-28T21:12:53.987Z,67.21
2023-04-28T21:16:52.081Z,67.65
2023-04-28T21:20:49.951Z,67.77
2023-04-28T21:24:48.028Z,68.62
2023-04-28T21:28:46.932Z,68.87
2023-04-28T21:32:44.956Z,69.54
2023-04-28T21:36:42.985Z,69.84
2023-04-28T21:40:41.082Z,70.35
2023-04-28T21:44:38.961Z,70.19
2023-04-28T21:48:36.930Z,70.77
2023-04-28T21:52:34.960Z,71.30
2023-04-28T21:56:32.936Z,71.75
2023-04-28T22:00:30.883Z,72.36
2023-04-28T22:04:31.177Z,73.11
2023-04-28T22:08:28.868Z,73.57
2023-04-28T22:12:27.068Z,75.24
2023-04-28T22:16:25.023Z,75.75
2023-04-28T22:20:22.927Z,76.62
2023-04-28T22:24:20.861Z,77.68
2023-04-28T22:28:20.882Z,78.28
2023-04-28T22:32:18.947Z,79.27
2023-04-28T22:36:17.897Z,80.56
2023-04-28T22:40:15.832Z,80.52
2023-04-28T22:44:13.875Z,80.34
2023-04-28T22:48:11.892Z,80.77
2023-04-28T22:52:09.816Z,80.73
2023-04-28T22:56:09.844Z,80.88
2023-04-28T23:00:09.823Z,80.57
2023-04-28T23:04:07.985Z,81.03
2023-04-28T23:08:05.812Z,81.17
2023-04-28T23:12:03.803Z,81.12
2023-04-28T23:16:01.865Z,81.42
2023-04-28T23:19:59.979Z,81.49
2023-04-28T23:23:59.939Z,82.39
2023-04-28T23:27:57.871Z,82.48
2023-04-28T23:31:58.925Z,82.56
2023-04-28T23:35:56.795Z,83.32
2023-04-28T23:39:54.882Z,83.38
2023-04-28T23:43:54.798Z,83.08
2023-04-28T23:47:52.836Z,83.58
2023-04-28T23:51:50.763Z,84.28
2023-04-28T23:55:48.850Z,84.85
2023-04-28T23:59:48.696Z,85.45
